Time;durP1;ratioP1;P1;durP2;ratioP2;P2;SDS_P1;SDS_P2;PMS_P1;PMS_P2;Temp;Humidity;BMP_temperature;BMP_pressure;BME280_temperature;BME280_humidity;BME280_pressure;Samples;Min_cycle;Max_cycle;Signal;HPM_P1;HPM_P2
2022/01/11 00:00:24;;;;;;;;;34.00;26.75;;;;;-147.17;100.00;50312.53;5014023;28;51803;-60
2022/01/11 00:02:52;;;;;;;;;24.00;22.25;;;;;-147.17;100.00;50273.16;5021641;28;51132;-60
2022/01/11 00:05:25;;;;;;;;;31.50;26.50;;;;;-147.17;100.00;50284.97;5014964;28;51185;-62
2022/01/11 00:07:52;;;;;;;;;20.50;18.75;;;;;-147.17;100.00;50292.84;5028784;28;54549;-60
2022/01/11 00:10:27;;;;;;;;;20.75;20.00;;;;;-147.17;100.00;50296.78;5017853;28;51429;-61
2022/01/11 00:12:53;;;;;;;;;18.00;17.50;;;;;-147.17;100.00;50308.59;5026499;28;51235;-61
2022/01/11 00:15:19;;;;;;;;;19.75;17.75;;;;;-147.17;100.00;50261.34;5021208;28;53903;-62
2022/01/11 00:17:44;;;;;;;;;17.00;16.25;;;;;-147.17;100.00;50292.84;5028175;28;51186;-61
2022/01/11 00:20:15;;;;;;;;;22.00;21.25;;;;;-147.17;100.00;50257.41;5017911;28;51087;-61
2022/01/11 00:24:26;;;;;;;;;21.00;19.50;;;;;-147.17;100.00;50271.19;5011648;28;51157;-60
2022/01/11 00:25:29;;;;;;;;;26.50;20.75;;;;;-147.17;100.00;50269.22;5023953;28;51157;-60
2022/01/11 00:27:55;;;;;;;;;20.75;18.75;;;;;-147.17;100.00;50223.94;5024068;28;52262;-60
2022/01/11 00:30:22;;;;;;;;;27.25;23.25;;;;;-147.17;100.00;50275.13;5015783;28;51484;-61
2022/01/11 00:32:52;;;;;;;;;21.50;19.75;;;;;-147.17;100.00;50265.28;5016877;28;51285;-60
2022/01/11 00:35:22;;;;;;;;;22.50;19.25;;;;;-147.17;100.00;50271.19;5026405;28;51324;-61
2022/01/11 00:37:48;;;;;;;;;20.00;19.00;;;;;-147.17;100.00;50281.03;5031639;28;52814;-60
2022/01/11 00:40:14;;;;;;;;;24.25;22.75;;;;;-147.17;100.00;50281.03;5012849;28;50963;-60
2022/01/11 00:42:39;;;;;;;;;22.25;19.75;;;;;-147.17;100.00;50277.09;5019228;28;50887;-60
2022/01/11 00:45:07;;;;;;;;;17.75;17.00;;;;;-147.17;100.00;50233.78;5011476;28;51303;-61
2022/01/11 00:47:33;;;;;;;;;23.25;21.25;;;;;-147.17;100.00;50265.28;5020389;28;52796;-61
2022/01/11 00:50:18;;;;;;;;;20.50;20.50;;;;;-147.17;100.00;50253.47;5015868;28;51080;-62
2022/01/11 00:52:55;;;;;;;;;22.75;21.00;;;;;-147.17;100.00;50271.19;5015353;28;51267;-61
2022/01/11 00:55:21;;;;;;;;;19.25;19.25;;;;;-147.17;100.00;50259.38;5021121;28;51226;-61
2022/01/11 00:57:46;;;;;;;;;23.25;21.25;;;;;-147.17;100.00;50247.56;5022815;28;52931;-61
2022/01/11 01:00:12;;;;;;;;;23.50;19.25;;;;;-147.17;100.00;50261.34;5021606;28;51268;-61
2022/01/11 01:02:38;;;;;;;;;25.25;17.75;;;;;-147.17;100.00;50284.97;5019106;28;51875;-61
2022/01/11 01:05:05;;;;;;;;;26.25;22.00;;;;;-147.17;100.00;50259.38;5021171;28;51257;-61
2022/01/11 01:07:30;;;;;;;;;23.75;21.50;;;;;-147.17;100.00;50245.59;5033977;28;51694;-61
2022/01/11 01:10:15;;;;;;;;;26.50;25.00;;;;;-147.17;100.00;50265.28;5027501;28;51082;-61
2022/01/11 01:12:40;;;;;;;;;22.25;20.50;;;;;-147.17;100.00;50253.47;5033003;28;51297;-63
2022/01/11 01:15:06;;;;;;;;;40.75;33.75;;;;;-147.17;100.00;50261.34;5022445;28;51196;-63
2022/01/11 01:17:32;;;;;;;;;26.75;26.75;;;;;-147.17;100.00;50259.38;5031187;28;51308;-63
2022/01/11 01:19:57;;;;;;;;;26.25;24.25;;;;;-147.17;100.00;50251.50;5030422;28;52629;-63
2022/01/11 01:22:23;;;;;;;;;32.00;27.50;;;;;-147.17;100.00;50265.28;5013942;28;51178;-63
2022/01/11 01:24:48;;;;;;;;;28.00;26.25;;;;;-147.17;100.00;50271.19;5022623;28;52607;-63
2022/01/11 01:27:15;;;;;;;;;23.25;21.00;;;;;-147.17;100.00;50235.75;5031975;28;51795;-62
2022/01/11 01:29:41;;;;;;;;;28.00;25.25;;;;;-147.17;100.00;50267.25;5027955;28;51264;-63
2022/01/11 01:32:08;;;;;;;;;30.00;27.25;;;;;-147.17;100.00;50237.72;5014414;28;51309;-63
2022/01/11 01:34:35;;;;;;;;;28.75;27.00;;;;;-147.17;100.00;50249.53;5020440;28;53130;-62
2022/01/11 01:37:00;;;;;;;;;30.25;26.25;;;;;-147.17;100.00;50235.75;5028157;28;52014;-62
2022/01/11 01:39:26;;;;;;;;;34.50;30.25;;;;;-147.17;100.00;50269.22;5031104;28;51210;-61
2022/01/11 01:41:52;;;;;;;;;32.75;29.75;;;;;-147.17;100.00;50247.56;5027425;28;51035;-62
2022/01/11 01:44:18;;;;;;;;;42.50;38.00;;;;;-147.17;100.00;50233.78;5023174;28;51127;-62
2022/01/11 01:46:43;;;;;;;;;39.25;33.00;;;;;-147.17;100.00;50245.59;5032053;28;51268;-64
2022/01/11 01:49:15;;;;;;;;;28.00;27.75;;;;;-147.17;100.00;50253.47;5028583;28;51169;-63
2022/01/11 01:51:41;;;;;;;;;41.00;34.75;;;;;-147.17;100.00;50275.13;5029615;28;51223;-62
2022/01/11 01:54:06;;;;;;;;;37.75;30.00;;;;;-147.17;100.00;50283.00;5023338;28;51391;-63
2022/01/11 01:56:33;;;;;;;;;32.75;31.25;;;;;-147.17;100.00;50253.47;5016259;28;51877;-65
2022/01/11 01:58:59;;;;;;;;;43.50;35.50;;;;;-147.17;100.00;50263.31;5017628;28;51140;-63
2022/01/11 02:01:26;;;;;;;;;36.75;34.25;;;;;-147.17;100.00;50257.41;5011552;28;51180;-63
2022/01/11 02:03:52;;;;;;;;;34.00;29.50;;;;;-147.17;100.00;50253.47;5031916;28;51352;-63
2022/01/11 02:06:20;;;;;;;;;33.25;30.50;;;;;-147.17;100.00;50253.47;5017350;28;52036;-63
2022/01/11 02:08:47;;;;;;;;;36.50;29.50;;;;;-147.17;100.00;50269.22;5026503;28;51204;-62
2022/01/11 02:11:18;;;;;;;;;30.25;27.50;;;;;-147.17;100.00;50300.72;5017337;28;51017;-62
2022/01/11 02:13:45;;;;;;;;;33.50;29.50;;;;;-147.17;100.00;50292.84;5028125;28;51442;-62
2022/01/11 02:16:13;;;;;;;;;31.25;28.50;;;;;-147.17;100.00;50263.31;5014328;28;51695;-63
2022/01/11 02:18:40;;;;;;;;;24.75;24.75;;;;;-147.17;100.00;50281.03;5016763;28;51576;-63
2022/01/11 02:21:06;;;;;;;;;37.00;34.50;;;;;-147.17;100.00;50267.25;5012891;28;51134;-63
2022/01/11 02:23:31;;;;;;;;;34.50;31.00;;;;;-147.17;100.00;50292.84;5018307;28;51352;-63
2022/01/11 02:25:57;;;;;;;;;39.75;34.50;;;;;-147.17;100.00;50298.75;5021822;28;51753;-63
2022/01/11 02:28:25;;;;;;;;;37.75;32.75;;;;;-147.17;100.00;50269.22;5021927;28;51116;-62
2022/01/11 02:30:51;;;;;;;;;33.75;27.25;;;;;-147.17;100.00;50316.44;5025724;28;51054;-63
2022/01/11 02:33:32;;;;;;;;;33.00;30.25;;;;;-147.17;100.00;50288.91;5019985;28;51130;-63
2022/01/11 02:36:02;;;;;;;;;13.25;12.25;;;;;-147.17;100.00;50271.19;5022191;28;51849;-64
2022/01/11 02:38:28;;;;;;;;;20.50;19.25;;;;;-147.17;100.00;50286.94;5024585;28;51036;-63
2022/01/11 02:40:54;;;;;;;;;26.75;21.75;;;;;-147.17;100.00;50302.69;5024596;28;51852;-62
2022/01/11 02:43:19;;;;;;;;;23.75;22.25;;;;;-147.17;100.00;50273.16;5016992;28;51084;-62
2022/01/11 02:45:44;;;;;;;;;16.25;13.00;;;;;-147.17;100.00;50259.38;5019704;28;52713;-62
2022/01/11 02:48:10;;;;;;;;;23.25;21.00;;;;;-147.17;100.00;50261.34;5014565;28;51078;-62
2022/01/11 02:50:35;;;;;;;;;31.00;29.25;;;;;-147.17;100.00;50261.34;5030867;28;51335;-63
2022/01/11 02:53:01;;;;;;;;;32.50;29.00;;;;;-147.17;100.00;50275.13;5018925;28;51167;-62
2022/01/11 02:55:26;;;;;;;;;28.50;26.75;;;;;-147.17;100.00;50298.75;5006027;28;53180;-62
2022/01/11 02:57:51;;;;;;;;;36.25;28.75;;;;;-147.17;100.00;50314.47;5019649;28;51184;-62
2022/01/11 03:00:20;;;;;;;;;34.75;26.00;;;;;-147.17;100.00;50275.13;5028834;28;51072;-62
2022/01/11 03:02:46;;;;;;;;;27.75;27.00;;;;;-147.17;100.00;50284.97;5032563;28;50983;-62
2022/01/11 03:05:13;;;;;;;;;23.00;21.00;;;;;-147.17;100.00;50269.22;5030508;28;51169;-62
2022/01/11 03:07:41;;;;;;;;;24.75;21.75;;;;;-147.17;100.00;50277.09;5022284;28;51198;-62
2022/01/11 03:10:23;;;;;;;;;22.75;19.50;;;;;-147.17;100.00;50312.53;5027876;28;51145;-62
2022/01/11 03:12:49;;;;;;;;;30.75;24.25;;;;;-147.17;100.00;50304.66;5028941;28;51252;-62
2022/01/11 03:15:15;;;;;;;;;25.75;24.50;;;;;-147.17;100.00;50261.34;5022157;28;53831;-63
2022/01/11 03:17:40;;;;;;;;;27.50;23.75;;;;;-147.17;100.00;50284.97;5030887;28;51135;-62
2022/01/11 03:20:07;;;;;;;;;20.50;17.25;;;;;-147.17;100.00;50294.81;5022819;28;51162;-63
2022/01/11 03:22:33;;;;;;;;;23.50;21.50;;;;;-147.17;100.00;50292.84;5020651;28;51334;-63
2022/01/11 03:24:58;;;;;;;;;27.75;24.25;;;;;-147.17;100.00;50296.78;5002750;28;54168;-63
2022/01/11 03:27:24;;;;;;;;;31.00;25.00;;;;;-147.17;100.00;50283.00;5017569;28;51149;-63
2022/01/11 03:29:51;;;;;;;;;27.50;23.75;;;;;-147.17;100.00;50302.69;5025277;28;50947;-64
2022/01/11 03:32:18;;;;;;;;;24.75;22.25;;;;;-147.17;100.00;50294.81;5017717;28;51405;-63
2022/01/11 03:34:45;;;;;;;;;27.50;24.75;;;;;-147.17;100.00;50310.56;5013639;28;51113;-63
2022/01/11 03:37:13;;;;;;;;;17.00;13.75;;;;;-147.17;100.00;50265.28;5022974;28;51519;-63
2022/01/11 03:39:39;;;;;;;;;26.75;22.50;;;;;-147.17;100.00;50304.66;5017059;28;51106;-64
2022/01/11 03:42:05;;;;;;;;;26.25;25.00;;;;;-147.17;100.00;50292.84;5032640;28;51107;-63
2022/01/11 03:44:30;;;;;;;;;35.00;27.25;;;;;-147.17;100.00;50229.84;5025922;28;51817;-63
2022/01/11 03:46:55;;;;;;;;;25.25;22.50;;;;;-147.17;100.00;50259.38;5031471;28;50915;-62
2022/01/11 03:49:21;;;;;;;;;30.50;29.00;;;;;-147.17;100.00;50263.31;5014049;28;51217;-64
2022/01/11 03:51:49;;;;;;;;;23.25;20.75;;;;;-147.17;100.00;50302.69;5032120;28;51107;-63
2022/01/11 03:54:22;;;;;;;;;30.25;25.75;;;;;-147.17;100.00;50277.09;5019265;28;51750;-65
2022/01/11 03:56:47;;;;;;;;;25.50;24.75;;;;;-147.17;100.00;50288.91;5027003;28;51290;-62
2022/01/11 03:59:13;;;;;;;;;21.00;19.75;;;;;-147.17;100.00;50261.34;5018329;28;51209;-63
2022/01/11 04:01:38;;;;;;;;;22.25;22.25;;;;;-147.17;100.00;50259.38;5020772;28;52925;-62
2022/01/11 04:04:05;;;;;;;;;24.25;24.00;;;;;-147.17;100.00;50265.28;5021736;28;52254;-62
2022/01/11 04:06:31;;;;;;;;;18.00;18.00;;;;;-147.17;100.00;50279.06;5026876;28;51087;-62
2022/01/11 04:08:57;;;;;;;;;25.00;23.75;;;;;-147.17;100.00;50265.28;5023009;28;51447;-63
2022/01/11 04:11:22;;;;;;;;;29.00;25.75;;;;;-147.17;100.00;50277.09;5019308;28;51118;-63
2022/01/11 04:13:48;;;;;;;;;24.75;22.50;;;;;-147.17;100.00;50302.69;5024238;28;52617;-63
2022/01/11 04:16:14;;;;;;;;;25.50;21.50;;;;;-147.17;100.00;50265.28;5018430;28;50938;-64
2022/01/11 04:18:39;;;;;;;;;23.00;22.50;;;;;-147.17;100.00;50269.22;5031239;28;51167;-63
2022/01/11 04:21:05;;;;;;;;;20.50;17.25;;;;;-147.17;100.00;50283.00;5025312;28;50946;-63
2022/01/11 04:23:31;;;;;;;;;19.75;17.75;;;;;-147.17;100.00;50263.31;5024222;28;51174;-63
2022/01/11 04:25:57;;;;;;;;;23.00;22.00;;;;;-147.17;100.00;50261.34;5030768;28;51062;-63
2022/01/11 04:28:23;;;;;;;;;25.00;21.75;;;;;-147.17;100.00;50267.25;5034386;28;50982;-62
2022/01/11 04:30:50;;;;;;;;;23.75;18.00;;;;;-147.17;100.00;50265.28;5023912;28;51087;-62
2022/01/11 04:33:16;;;;;;;;;26.75;24.25;;;;;-147.17;100.00;50277.09;5023164;28;51105;-63
2022/01/11 04:35:44;;;;;;;;;28.25;24.50;;;;;-147.17;100.00;50277.09;5021546;28;51164;-62
2022/01/11 04:38:10;;;;;;;;;27.00;23.25;;;;;-147.17;100.00;50286.94;5023770;28;50949;-62
2022/01/11 04:40:36;;;;;;;;;27.50;23.75;;;;;-147.17;100.00;50304.66;5017509;28;51192;-63
2022/01/11 04:43:01;;;;;;;;;31.50;27.25;;;;;-147.17;100.00;50314.47;5032786;28;52353;-62
2022/01/11 04:45:27;;;;;;;;;25.00;21.75;;;;;-147.17;100.00;50275.13;5034083;28;51131;-62
2022/01/11 04:47:56;;;;;;;;;30.50;27.00;;;;;-147.17;100.00;50304.66;5017529;28;52499;-62
2022/01/11 04:50:24;;;;;;;;;29.00;27.00;;;;;-147.17;100.00;50277.09;5026133;28;51242;-63
2022/01/11 04:52:49;;;;;;;;;26.75;23.00;;;;;-147.17;100.00;50279.06;5032959;28;51978;-62
2022/01/11 04:55:14;;;;;;;;;27.50;24.75;;;;;-147.17;100.00;50247.56;5029111;28;51228;-63
2022/01/11 04:57:40;;;;;;;;;27.50;26.25;;;;;-147.17;100.00;50275.13;5026987;28;50983;-63
2022/01/11 05:00:06;;;;;;;;;20.75;18.75;;;;;-147.17;100.00;50245.59;5020505;28;52452;-63
2022/01/11 05:02:31;;;;;;;;;26.00;22.25;;;;;-147.17;100.00;50273.16;5014366;28;53178;-63
2022/01/11 05:04:57;;;;;;;;;27.00;26.25;;;;;-147.17;100.00;50273.16;5019941;28;51199;-62
2022/01/11 05:07:22;;;;;;;;;28.50;23.25;;;;;-147.17;100.00;50265.28;5028530;28;51303;-62
2022/01/11 05:09:49;;;;;;;;;28.50;24.50;;;;;-147.17;100.00;50235.75;5024146;28;52607;-63
2022/01/11 05:12:14;;;;;;;;;26.00;21.75;;;;;-147.17;100.00;50253.47;5018506;28;52830;-63
2022/01/11 05:14:40;;;;;;;;;37.50;32.25;;;;;-147.17;100.00;50259.38;5022700;28;51165;-63
2022/01/11 05:17:05;;;;;;;;;32.50;22.25;;;;;-147.17;100.00;50271.19;5035040;28;50970;-63
2022/01/11 05:19:30;;;;;;;;;28.25;25.25;;;;;-147.17;100.00;50273.16;5028471;28;51399;-63
2022/01/11 05:21:56;;;;;;;;;30.75;28.00;;;;;-147.17;100.00;50267.25;5021998;28;51034;-63
2022/01/11 05:24:21;;;;;;;;;29.50;25.75;;;;;-147.17;100.00;50277.09;5021324;28;51236;-62
2022/01/11 05:26:46;;;;;;;;;27.00;25.25;;;;;-147.17;100.00;50273.16;5022639;28;50964;-63
2022/01/11 05:29:12;;;;;;;;;38.00;31.00;;;;;-147.17;100.00;50294.81;5026747;28;51470;-63
2022/01/11 05:31:37;;;;;;;;;42.50;37.00;;;;;-147.17;100.00;50277.09;5027070;28;51124;-63
2022/01/11 05:34:03;;;;;;;;;31.25;26.00;;;;;-147.17;100.00;50284.97;5019256;28;51137;-63
2022/01/11 05:36:28;;;;;;;;;24.50;23.25;;;;;-147.17;100.00;50275.13;5026161;28;51102;-63
2022/01/11 05:38:54;;;;;;;;;28.25;24.25;;;;;-147.17;100.00;50292.84;5032856;28;50892;-63
2022/01/11 05:41:19;;;;;;;;;31.25;23.75;;;;;-147.17;100.00;50271.19;5033340;28;50936;-63
2022/01/11 05:43:44;;;;;;;;;31.25;25.75;;;;;-147.17;100.00;50288.91;5030652;28;51473;-63
2022/01/11 05:46:10;;;;;;;;;36.00;29.25;;;;;-147.17;100.00;50269.22;5017628;28;51029;-63
2022/01/11 05:48:35;;;;;;;;;28.50;26.50;;;;;-147.17;100.00;50288.91;5016812;28;51121;-63
2022/01/11 05:51:01;;;;;;;;;43.25;35.00;;;;;-147.17;100.00;50294.81;5023004;28;51595;-63
2022/01/11 05:53:26;;;;;;;;;38.75;33.75;;;;;-147.17;100.00;50292.84;5033008;28;51346;-62
2022/01/11 05:55:51;;;;;;;;;39.00;34.25;;;;;-147.17;100.00;50296.78;5028925;28;51627;-62
2022/01/11 05:58:17;;;;;;;;;38.50;33.00;;;;;-147.17;100.00;50261.34;5022345;28;51374;-62
2022/01/11 06:00:42;;;;;;;;;22.25;21.00;;;;;-147.17;100.00;50296.78;5030526;28;51818;-62
2022/01/11 06:03:07;;;;;;;;;36.50;31.75;;;;;-147.17;100.00;50304.66;5031799;28;50991;-62
2022/01/11 06:05:37;;;;;;;;;20.75;19.75;;;;;-147.17;100.00;50269.22;5018887;28;51451;-62
2022/01/11 06:08:04;;;;;;;;;29.00;26.00;;;;;-147.17;100.00;50330.22;5025349;28;51193;-62
2022/01/11 06:10:29;;;;;;;;;41.00;32.50;;;;;-147.17;100.00;50330.22;5016543;28;51956;-62
2022/01/11 06:12:55;;;;;;;;;37.00;33.25;;;;;-147.17;100.00;50312.53;5013648;28;51094;-62
2022/01/11 06:15:20;;;;;;;;;30.25;28.00;;;;;-147.17;100.00;50296.78;5018189;28;51644;-63
2022/01/11 06:17:46;;;;;;;;;31.25;29.75;;;;;-147.17;100.00;50292.84;5032904;28;51327;-64
2022/01/11 06:20:11;;;;;;;;;27.25;26.25;;;;;-147.17;100.00;50300.72;5032865;28;51981;-61
2022/01/11 06:22:37;;;;;;;;;34.00;27.75;;;;;-147.17;100.00;50336.13;5032772;28;51228;-62
2022/01/11 06:25:04;;;;;;;;;26.25;20.00;;;;;-147.17;100.00;50320.38;5025801;28;51063;-63
2022/01/11 06:27:33;;;;;;;;;39.50;31.25;;;;;-147.17;100.00;50306.63;5025993;28;51268;-62
2022/01/11 06:29:58;;;;;;;;;41.00;37.75;;;;;-147.17;100.00;50294.81;5021027;28;52149;-62
2022/01/11 06:32:24;;;;;;;;;41.25;36.50;;;;;-147.17;100.00;50316.44;5022126;28;51071;-63
2022/01/11 06:34:49;;;;;;;;;41.00;38.75;;;;;-147.17;100.00;50300.72;5017812;28;51050;-63
2022/01/11 06:37:15;;;;;;;;;41.75;35.75;;;;;-147.17;100.00;50320.38;5033889;28;51588;-63
2022/01/11 06:39:40;;;;;;;;;38.00;36.25;;;;;-147.17;100.00;50320.38;5026685;28;51607;-63
2022/01/11 06:42:07;;;;;;;;;35.75;35.50;;;;;-147.17;100.00;50310.56;5020274;28;51071;-63
2022/01/11 06:44:32;;;;;;;;;45.00;41.00;;;;;-147.17;100.00;50292.84;5004985;28;51185;-63
2022/01/11 06:46:58;;;;;;;;;34.75;30.50;;;;;-147.17;100.00;50265.28;5026088;28;51094;-64
2022/01/11 06:49:23;;;;;;;;;35.75;30.50;;;;;-147.17;100.00;50300.72;5025816;28;52670;-63
2022/01/11 06:51:49;;;;;;;;;35.25;32.00;;;;;-147.17;100.00;50318.41;5022380;28;51198;-63
2022/01/11 06:54:14;;;;;;;;;37.50;35.75;;;;;-147.17;100.00;50304.66;5031867;28;51095;-63
2022/01/11 06:56:39;;;;;;;;;42.75;36.75;;;;;-147.17;100.00;50320.38;5027726;28;51277;-62
2022/01/11 06:59:06;;;;;;;;;35.25;34.75;;;;;-147.17;100.00;50351.88;5009291;28;51624;-63
2022/01/11 07:01:32;;;;;;;;;36.25;34.50;;;;;-147.17;100.00;50300.72;5023143;28;51070;-63
2022/01/11 07:03:57;;;;;;;;;39.75;34.50;;;;;-147.17;100.00;50306.63;5032763;28;50940;-63
2022/01/11 07:06:22;;;;;;;;;34.50;30.75;;;;;-147.17;100.00;50340.06;5023500;28;51063;-62
2022/01/11 07:08:48;;;;;;;;;30.75;29.50;;;;;-147.17;100.00;50322.34;5016246;28;51256;-63
2022/01/11 07:11:13;;;;;;;;;36.00;33.00;;;;;-147.17;100.00;50328.25;5024134;28;51198;-63
2022/01/11 07:13:39;;;;;;;;;40.00;37.25;;;;;-147.17;100.00;50328.25;5012968;28;50921;-63
2022/01/11 07:16:04;;;;;;;;;45.75;42.25;;;;;-147.17;100.00;50328.25;5013831;28;51126;-63
2022/01/11 07:18:30;;;;;;;;;45.75;39.00;;;;;-147.17;100.00;50314.47;5013023;28;52390;-63
2022/01/11 07:20:55;;;;;;;;;39.25;37.00;;;;;-147.17;100.00;50316.44;5027637;28;51229;-62
2022/01/11 07:23:20;;;;;;;;;38.50;37.75;;;;;-147.17;100.00;50320.38;5021770;28;51074;-62
2022/01/11 07:25:46;;;;;;;;;37.75;33.00;;;;;-147.17;100.00;50310.56;5022484;28;51087;-65
2022/01/11 07:28:14;;;;;;;;;43.25;37.75;;;;;-147.17;100.00;50318.41;5030785;28;53192;-64
2022/01/11 07:30:39;;;;;;;;;36.75;33.25;;;;;-147.17;100.00;50316.44;5027821;28;51266;-62
2022/01/11 07:33:06;;;;;;;;;42.50;36.00;;;;;-147.17;100.00;50306.63;5024716;28;51189;-62
2022/01/11 07:35:31;;;;;;;;;42.25;34.00;;;;;-147.17;100.00;50314.47;5009065;28;51310;-62
2022/01/11 07:37:57;;;;;;;;;39.00;37.75;;;;;-147.17;100.00;50320.38;5023403;28;51230;-62
2022/01/11 07:40:22;;;;;;;;;39.25;34.75;;;;;-147.17;100.00;50300.72;5015356;28;51188;-62
2022/01/11 07:42:48;;;;;;;;;43.75;35.50;;;;;-147.17;100.00;50326.28;5031421;28;50972;-62
2022/01/11 07:45:16;;;;;;;;;38.00;37.00;;;;;-147.17;100.00;50308.59;5018878;28;50945;-63
2022/01/11 07:47:41;;;;;;;;;43.75;41.00;;;;;-147.17;100.00;50312.53;5012758;28;51209;-62
2022/01/11 07:50:07;;;;;;;;;43.00;38.00;;;;;-147.17;100.00;50312.53;5020063;28;51209;-62
2022/01/11 07:52:33;;;;;;;;;37.00;33.00;;;;;-147.17;100.00;50320.38;5010159;28;51106;-62
2022/01/11 07:55:00;;;;;;;;;43.00;36.50;;;;;-147.17;100.00;50328.25;5018280;28;50987;-62
2022/01/11 07:57:26;;;;;;;;;42.25;33.00;;;;;-147.17;100.00;50308.59;5012641;28;53160;-61
2022/01/11 07:59:51;;;;;;;;;40.00;35.00;;;;;-147.17;100.00;50308.59;5013600;28;51123;-61
2022/01/11 08:02:17;;;;;;;;;47.25;39.25;;;;;-147.17;100.00;50316.44;5017938;28;51173;-62
2022/01/11 08:04:42;;;;;;;;;48.75;42.75;;;;;-147.17;100.00;50306.63;5013829;28;52666;-61
2022/01/11 08:07:10;;;;;;;;;43.00;39.25;;;;;-147.17;100.00;50308.59;5018477;28;51113;-62
2022/01/11 08:09:35;;;;;;;;;50.50;42.75;;;;;-147.17;100.00;50344.00;5017025;28;51234;-62
2022/01/11 08:12:01;;;;;;;;;55.25;43.50;;;;;-147.17;100.00;50347.94;5017775;28;51113;-62
2022/01/11 08:14:26;;;;;;;;;49.25;43.25;;;;;-147.17;100.00;50320.38;5013795;28;51844;-61
2022/01/11 08:16:52;;;;;;;;;49.75;40.00;;;;;-147.17;100.00;50308.59;5018337;28;52663;-65
2022/01/11 08:19:24;;;;;;;;;43.75;37.75;;;;;-147.17;100.00;50302.69;5016026;28;51306;-61
2022/01/11 08:21:50;;;;;;;;;51.25;42.50;;;;;-147.17;100.00;50332.19;5016677;28;51234;-62
2022/01/11 08:24:15;;;;;;;;;43.50;35.75;;;;;-147.17;100.00;50308.59;5016252;28;51300;-60
2022/01/11 08:26:42;;;;;;;;;50.00;41.75;;;;;-147.17;100.00;50273.16;5016425;28;51954;-61
2022/01/11 08:29:07;;;;;;;;;30.00;24.00;;;;;-147.17;100.00;50336.13;5014082;28;51346;-64
2022/01/11 08:31:33;;;;;;;;;61.00;42.25;;;;;-147.17;100.00;50326.28;5017335;28;51223;-62
2022/01/11 08:33:58;;;;;;;;;50.00;40.00;;;;;-147.17;100.00;50306.63;5016410;28;52317;-62
2022/01/11 08:36:24;;;;;;;;;42.50;39.25;;;;;-147.17;100.00;50306.63;5016082;28;51223;-60
2022/01/11 08:38:49;;;;;;;;;48.25;41.75;;;;;-147.17;100.00;50330.22;5016105;28;51326;-61
2022/01/11 08:41:14;;;;;;;;;52.25;42.75;;;;;-147.17;100.00;50332.19;5016319;28;51256;-61
2022/01/11 08:43:40;;;;;;;;;39.50;33.50;;;;;-147.17;100.00;50308.59;5018163;28;51382;-61
2022/01/11 08:46:05;;;;;;;;;43.00;38.50;;;;;-147.17;100.00;50304.66;5016814;28;52032;-62
2022/01/11 08:48:31;;;;;;;;;48.75;43.50;;;;;-147.17;100.00;50302.69;5014184;28;51314;-61
2022/01/11 08:50:57;;;;;;;;;45.50;40.50;;;;;-147.17;100.00;50288.91;5013703;28;51443;-61
2022/01/11 08:53:23;;;;;;;;;45.50;37.25;;;;;-147.17;100.00;50306.63;5012906;28;51454;-61
2022/01/11 08:55:49;;;;;;;;;41.00;37.00;;;;;-147.17;100.00;50324.31;5015234;28;52677;-62
2022/01/11 08:58:15;;;;;;;;;38.25;35.25;;;;;-147.17;100.00;50316.44;5017158;28;51121;-60
2022/01/11 09:00:41;;;;;;;;;49.75;41.00;;;;;-147.17;100.00;50306.63;5013875;28;51260;-61
2022/01/11 09:03:07;;;;;;;;;52.25;41.50;;;;;-147.17;100.00;50338.09;5015809;28;51215;-61
2022/01/11 09:05:32;;;;;;;;;42.50;38.00;;;;;-147.17;100.00;50283.00;5016188;28;53141;-60
2022/01/11 09:07:58;;;;;;;;;55.50;48.50;;;;;-147.17;100.00;50300.72;5014184;28;51223;-60
2022/01/11 09:10:24;;;;;;;;;61.75;48.00;;;;;-147.17;100.00;50312.53;5014331;28;51671;-61
2022/01/11 09:12:50;;;;;;;;;52.75;43.00;;;;;-147.17;100.00;50296.78;5018292;28;51257;-62
2022/01/11 09:15:16;;;;;;;;;48.25;40.25;;;;;-147.17;100.00;50261.34;5014781;28;52429;-65
2022/01/11 09:17:42;;;;;;;;;62.50;45.50;;;;;-147.17;100.00;50326.28;5016721;28;51141;-60
2022/01/11 09:20:09;;;;;;;;;56.00;42.00;;;;;-147.17;100.00;50286.94;5015096;28;52082;-61
2022/01/11 09:22:34;;;;;;;;;61.00;49.25;;;;;-147.17;100.00;50279.06;5013149;28;51950;-61
2022/01/11 09:25:00;;;;;;;;;60.25;50.50;;;;;-147.17;100.00;50324.31;5014389;28;51788;-60
2022/01/11 09:27:25;;;;;;;;;51.00;44.50;;;;;-147.17;100.00;50296.78;5012210;28;51199;-59
2022/01/11 09:29:51;;;;;;;;;57.25;45.75;;;;;-147.17;100.00;50296.78;5012193;28;51866;-59
2022/01/11 09:32:16;;;;;;;;;53.25;41.25;;;;;-147.17;100.00;50271.19;5014675;28;51040;-60
2022/01/11 09:34:42;;;;;;;;;49.50;42.75;;;;;-147.17;100.00;50281.03;5011314;28;52112;-61
2022/01/11 09:37:10;;;;;;;;;46.00;41.75;;;;;-147.17;100.00;50296.78;5013426;28;51285;-61
2022/01/11 09:39:36;;;;;;;;;60.00;47.75;;;;;-147.17;100.00;50304.66;5014996;28;51422;-62
2022/01/11 09:42:05;;;;;;;;;49.50;41.75;;;;;-147.17;100.00;50267.25;5012641;28;51426;-62
2022/01/11 09:44:32;;;;;;;;;46.75;41.75;;;;;-147.17;100.00;50308.59;5014590;28;51626;-63
2022/01/11 09:46:58;;;;;;;;;23.25;19.50;;;;;-147.17;100.00;50312.53;5013807;28;51250;-61
2022/01/11 09:49:24;;;;;;;;;54.00;43.25;;;;;-147.17;100.00;50312.53;5013157;28;51208;-62
2022/01/11 09:51:51;;;;;;;;;58.50;49.25;;;;;-147.17;100.00;50304.66;5014525;28;51097;-62
2022/01/11 09:54:19;;;;;;;;;55.25;45.75;;;;;-147.17;100.00;50322.34;5015014;28;51285;-61
2022/01/11 09:56:45;;;;;;;;;56.25;46.50;;;;;-147.17;100.00;50328.25;5016779;28;51134;-61
2022/01/11 09:59:11;;;;;;;;;54.75;47.25;;;;;-147.17;100.00;50334.16;5014245;28;51163;-60
2022/01/11 10:01:37;;;;;;;;;66.50;52.50;;;;;-147.17;100.00;50326.28;5013532;28;51156;-60
2022/01/11 10:04:10;;;;;;;;;63.25;48.25;;;;;-147.17;100.00;50316.44;5015700;28;52735;-59
2022/01/11 10:06:41;;;;;;;;;51.50;43.00;;;;;-147.17;100.00;50324.31;5009827;28;51269;-62
2022/01/11 10:09:12;;;;;;;;;46.75;42.25;;;;;-147.17;100.00;50365.66;5013159;28;51261;-60
2022/01/11 10:11:40;;;;;;;;;43.25;39.50;;;;;-147.17;100.00;50344.00;5027391;28;51498;-61
2022/01/11 10:14:26;;;;;;;;;49.75;43.25;;;;;-147.17;100.00;50336.13;5013497;28;52347;-60
2022/01/11 10:17:16;;;;;;;;;46.50;42.00;;;;;-147.17;100.00;50318.41;5011682;28;52041;-62
2022/01/11 10:20:01;;;;;;;;;46.25;39.50;;;;;-147.17;100.00;50340.06;5012608;28;51169;-62
2022/01/11 10:22:29;;;;;;;;;53.75;43.00;;;;;-147.17;100.00;50310.56;5012212;28;51103;-62
2022/01/11 10:24:55;;;;;;;;;53.75;44.25;;;;;-147.17;100.00;50302.69;5021783;28;51262;-62
2022/01/11 10:27:24;;;;;;;;;49.75;43.00;;;;;-147.17;100.00;50328.25;5018315;28;51293;-63
2022/01/11 10:30:03;;;;;;;;;57.75;41.75;;;;;-147.17;100.00;50306.63;5002637;28;51182;-61
2022/01/11 10:32:35;;;;;;;;;44.75;39.25;;;;;-147.17;100.00;50304.66;5011538;28;51418;-61
2022/01/11 10:35:13;;;;;;;;;42.25;38.25;;;;;-147.17;100.00;50296.78;5017045;28;51727;-62
2022/01/11 10:37:43;;;;;;;;;42.75;38.75;;;;;-147.17;100.00;50298.75;5041038;28;51095;-63
2022/01/11 10:40:09;;;;;;;;;54.00;45.75;;;;;-147.17;100.00;50298.75;5020441;28;51231;-62
2022/01/11 10:42:39;;;;;;;;;53.50;44.50;;;;;-147.17;100.00;50324.31;5013701;28;51384;-60
2022/01/11 10:45:16;;;;;;;;;50.25;38.50;;;;;-147.17;100.00;50345.97;5011999;28;51232;-62
2022/01/11 10:47:47;;;;;;;;;30.00;26.25;;;;;-147.17;100.00;50292.84;5017241;28;51176;-63
2022/01/11 10:50:27;;;;;;;;;54.00;41.25;;;;;-147.17;100.00;50336.13;5032862;28;51002;-63
2022/01/11 10:52:53;;;;;;;;;50.75;44.50;;;;;-147.17;100.00;50312.53;5031844;28;50913;-62